Карта
Морски нива
Данни за вълнение
Данни за вълнение 1
Пункт Вятър (m/s) Порив (m/s) Посока Вятър (kn) Порив (kn) Температура Налягане Влажност Последно обновяване Видимост Последно обновяване (видимост)
7.4 8.9 315.6 14.38 17.3 -1.0 1014.9 80.7 29/01/23 07:46 11003 29/01/23 07:46
7.6 9.6 333.5 14.77 18.66 -0.2 1011.4 90.8 29/01/23 07:46 N/A N/A
11.3 14.9 343.3 21.97 28.96 -1.2 991.8 90.2 29/01/23 07:46 4796 29/01/23 07:46
10.6 14.4 307.1 20.6 27.99 0.2 1015.1 72.1 29/01/23 07:46 8726 29/01/23 07:46
2.2 4.9 310.4 4.28 9.52 1.3 1017.3 74.5 29/01/23 07:46 20000 29/01/23 07:46
2.9 5.2 346.4 5.64 10.11 1.4 1015.8 69.0 29/01/23 07:46 20000 29/01/23 07:46
2.1 2.7 321.5 4.08 5.25 0.9 1016.3 65.7 29/01/23 07:47 N/A N/A
2.6 4.1 264.5 5.05 7.97 1.2 1015.4 67.6 29/01/23 07:46 N/A N/A
1.9 4.9 174.0 3.69 9.52 1.3 1016.3 70.3 29/01/23 07:46 20000 29/01/23 07:47
4.8 6.4 245.0 9.33 12.44 N/A N/A N/A 29/01/23 07:46 N/A N/A
2.3 2.7 267.3 4.47 5.25 1.1 1017.1 65.9 29/01/23 07:46 20000 29/01/23 07:46
3.1 3.9 303.8 6.03 7.58 1.6 1016.7 63.4 29/01/23 07:46 N/A N/A
2.2 3.6 302.9 4.28 7 1.4 1016.2 68.0 29/01/23 07:46 20000 29/01/23 07:46
1.8 5 351.2 3.5 9.72 1.6 1016.6 69.2 29/01/23 07:46 20000 29/01/23 07:47
1.5 3.1 80.4 2.92 6.03 1.0 1014.0 63.7 29/01/23 07:47 N/A N/A
2.8 3.7 327.9 5.44 7.19 -0.8 992.1 84.3 29/01/23 07:46 20000 29/01/23 07:46
5.7 7.8 3.5 11.08 15.16 -1.4 986.8 87.2 29/01/23 07:47 20000 29/01/23 07:46
1.7 2.9 346.7 3.3 5.64 0.9 1019.3 66.5 29/01/23 07:47 20000 29/01/23 07:47
2.2 2.9 309.5 4.28 5.64 2.4 1017.1 63.5 29/01/23 07:46 18193 29/01/23 07:46
2.1 2.8 353.7 4.08 5.44 1.6 1017.8 59.4 29/01/23 07:47 20000 29/01/23 07:46
4.8 6.1 357.5 9.33 11.86 2.5 1018.8 69.2 29/01/23 07:46 20000 29/01/23 07:46
1.9 3.3 344.7 3.69 6.41 0.4 993.0 82.8 29/01/23 07:46 20000 29/01/23 07:46
5.0 6.7 328.0 9.72 13.02 1.4 1014.8 63.5 29/01/23 07:46 20000 29/01/23 07:47